Los Angeles, CA (90031)

3:22 AM PDT on September 23, 2014 (GMT -0700)
Glassell Park | Change Station
CLOSE
Current Station
Personal Weather Station
Location: Los Angeles, CA
Elevation: 568 ft
Nearby Weather Stations

Elev 568 ft 34.11 °N, 118.23 °W | Updated 59 seconds ago

Clear
Clear
63.3 °F
Feels Like 63.3 °F
N
0.0
Wind Variable Wind from East
Gusts 0.7 mph

Today
High -- | Low -- °F
--% Chance of Precip.
Yesterday
High -- | Low -- °F
Precip. -- in
6:41 AM 6:48 PM
Waning Crescent, 1% visible
Pressure 29.94 in
Visibility 10.0 miles
Clouds Clear
Dew Point 62 °F
Humidity 95%
Rainfall 0.00 in
Snow Depth 0 in , 1 in , 0 in
UV 1.0 out of 12
Pollen 6.60 out of 12
Ozone Good
PM2.5 Moderate
Flu Activity Not available.
METAR KCQT 230947Z AUTO 00000KT 10SM CLR 19/16 A2994 RMK AO2 SLP137 T01890161

More Conditions Fewer Conditions

Pressure 29.94 in
Visibility 10.0 miles
Clouds Clear
Dew Point 62 °F
Humidity 95%
Rainfall 0.00 in
Snow Depth 0 in , 1 in , 0 in
UV 1.0 out of 12
Pollen 6.60 out of 12
Ozone Good
PM2.5 Moderate
Flu Activity Not available.
METAR KCQT 230947Z AUTO 00000KT 10SM CLR 19/16 A2994 RMK AO2 SLP137 T01890161

More Conditions Fewer Conditions

10-Day Weather Forecast

Almanac

Astronomy

Sep. 23, 2014 Rise Set
Actual Time 6:41 AM PDT 6:48 PM PDT
Civil Twilight 6:16 AM PDT 7:13 PM PDT
Nautical Twilight 5:47 AM PDT 7:42 PM PDT
Astronomical Twilight 5:18 AM PDT 8:11 PM PDT
Moon 6:10 AM PDT 6:30 PM PDT
Length of Visible Light 12h 56m
Length of Day
12h 06m
Tomorrow will be 2m 7s shorter.
Waning Crescent, 1% of the Moon is Illuminated
Today
Waning Crescent
Sep 24
New
Oct 1
First Quarter
Oct 8
Full
Oct 15
Last Quarter

Today's Extremes

State Highs State Lows

Community

WunderPhotos

Upload Photos

1,755,645 photos uploaded!

Nearby

Air Quality

  Air Quality AQ Index Pollutant
Yesterday Good
PM10
Yesterday Good
OZONE
Current Moderate
PM2.5
Current Good
OZONE
Tuesday Good
PM10
Tuesday Good
OZONE
Tuesday Good
CO
Tuesday Good
NO2

Snow Depth

Station Depth Elevation
Blue Lakes 0 in 8000 ft
Summit Meadow 1 in 9122 ft
Monitor Pass 0 in 8350 ft
Squaw Valley 0 in 8200 ft
Spratt Creek 1 in 6200 ft

Earthquake Activity

City Distance Mag. Time & Date
Big Bear Lake, California 69 miles 2.5 7:26 AM PDT
2014-09-22
Borrego Springs, California 121 miles 2.6 7:34 AM PDT
2014-09-21
Inyokern, California 137 miles 3.1 5:33 PM PDT
2014-09-19
Minimum magnitude displayed is 2.5.

Coastal Water Temperatures

Place Temperature
Santa Monica Pier 70.0 °F
Los Angeles, CA 66.9 °F
La Jolla, CA 66.0 °F

Nearby Weather Stations